Rockdale, Texas
Current Conditions -  °F | °C
As of 1:55 PM on Wednesday 17 Dec 2014 (Local Time) from KT35 Reporting Station
Overcast Overcast  
Wind Chill: 46°   Ceiling: 2400
Heat Index: 49°   Visibility: 10mi
Dew Point: 40°   Wind: 8mph
Humidity: 70%   Direction: 110°ESE
Pressure: 30.12"   Gusts: NA
Location:  30.66°N, 97°W
Report Text: KT35 171955Z AUTO 11007KT 10SM OVC024 10/05 A3012 RMK AO2 LTG DSNT W T00970045
Loading
Personal Weather Stations






























Interactive Weather Map New forecast layout! Learn more

10-Day Weather Forecast

Advertisements
Track Severe Weather on mobile